createdAt,value
2019-01-15T06:30:00.574Z,25.80
2019-01-15T06:32:33.267Z,23.43
2019-01-15T06:35:05.956Z,19.47
2019-01-15T06:37:38.667Z,26.53
2019-01-15T06:40:11.919Z,20.53
2019-01-15T06:42:44.618Z,21.43
2019-01-15T06:45:19.454Z,24.13
2019-01-15T06:47:52.142Z,23.83
2019-01-15T06:50:24.832Z,20.70
2019-01-15T06:52:57.547Z,19.10
2019-01-15T06:55:30.262Z,24.17
2019-01-15T06:58:02.963Z,24.87
2019-01-15T07:00:35.672Z,23.60
2019-01-15T07:03:08.450Z,25.27
2019-01-15T07:05:41.146Z,28.90
2019-01-15T07:08:14.248Z,23.33
2019-01-15T07:10:46.953Z,23.03
2019-01-15T07:13:19.927Z,21.77
2019-01-15T07:15:52.633Z,20.30
2019-01-15T07:18:25.360Z,22.13
2019-01-15T07:20:58.049Z,18.03
2019-01-15T07:23:30.769Z,20.37
2019-01-15T07:26:03.684Z,22.13
2019-01-15T07:28:36.428Z,18.30
2019-01-15T07:31:09.171Z,20.00
2019-01-15T07:33:41.886Z,19.10
2019-01-15T07:36:14.822Z,21.70
2019-01-15T07:38:47.915Z,24.43
2019-01-15T07:41:20.712Z,17.73
2019-01-15T07:43:53.473Z,19.87
2019-01-15T07:46:26.276Z,22.13
2019-01-15T07:48:59.023Z,20.03
2019-01-15T07:51:31.784Z,23.87
2019-01-15T07:54:04.543Z,25.57
2019-01-15T07:56:37.262Z,21.63
2019-01-15T07:59:10.002Z,22.87
2019-01-15T08:01:43.827Z,26.83
2019-01-15T08:04:16.674Z,20.30
2019-01-15T08:06:49.403Z,21.83
2019-01-15T08:09:22.175Z,25.63
2019-01-15T08:11:54.883Z,21.20
2019-01-15T08:14:27.610Z,26.60
2019-01-15T08:17:00.344Z,29.70
2019-01-15T08:19:33.146Z,26.87
2019-01-15T08:22:05.842Z,24.40
2019-01-15T08:24:38.575Z,29.80
2019-01-15T08:27:11.603Z,27.50
2019-01-15T08:29:44.765Z,31.23
2019-01-15T08:32:17.496Z,24.93
2019-01-15T08:34:50.763Z,33.23
2019-01-15T08:37:26.296Z,33.23
2019-01-15T08:39:59.390Z,31.70
2019-01-15T08:42:32.439Z,30.83
2019-01-15T08:45:05.821Z,31.10
2019-01-15T08:47:38.865Z,31.57
2019-01-15T08:50:12.057Z,37.40
2019-01-15T08:52:44.754Z,30.20
2019-01-15T08:55:17.495Z,33.57
2019-01-15T08:57:50.216Z,32.80
2019-01-15T09:00:24.059Z,30.07
2019-01-15T09:02:56.856Z,32.67
2019-01-15T09:05:29.691Z,28.43
2019-01-15T09:08:02.498Z,34.20
2019-01-15T09:10:35.267Z,31.43
2019-01-15T09:13:08.316Z,31.03
2019-01-15T09:15:41.270Z,38.33
2019-01-15T09:18:14.275Z,40.97
2019-01-15T09:20:47.077Z,35.33
2019-01-15T09:23:19.771Z,41.90
2019-01-15T09:25:52.645Z,36.80
2019-01-15T09:28:25.359Z,30.83
2019-01-15T09:30:58.103Z,35.17
2019-01-15T09:33:31.224Z,38.00
2019-01-15T09:36:03.983Z,29.33
2019-01-15T09:38:36.687Z,38.33
2019-01-15T09:41:09.439Z,31.70
2019-01-15T09:43:42.666Z,32.90
2019-01-15T09:46:15.413Z,36.90
2019-01-15T09:48:48.172Z,37.43
2019-01-15T09:51:20.995Z,31.33
2019-01-15T09:53:54.613Z,32.13
2019-01-15T09:56:27.454Z,27.57
2019-01-15T09:59:00.307Z,26.93
2019-01-15T10:01:33.261Z,31.57
2019-01-15T10:04:06.004Z,25.17
2019-01-15T10:06:38.939Z,32.93
2019-01-15T10:09:11.712Z,33.73
2019-01-15T10:11:44.931Z,32.50
2019-01-15T10:14:17.755Z,25.60
2019-01-15T10:16:50.795Z,29.60
2019-01-15T10:19:23.888Z,27.33
2019-01-15T10:21:56.586Z,26.50
2019-01-15T10:24:29.928Z,26.97
2019-01-15T10:27:03.158Z,25.47
2019-01-15T10:29:36.069Z,27.53
2019-01-15T10:33:05.294Z,27.13
2019-01-15T10:35:56.878Z,27.53
2019-01-15T10:38:30.979Z,26.10
2019-01-15T10:41:03.690Z,26.40
2019-01-15T10:43:36.595Z,29.37
2019-01-15T10:46:09.303Z,25.20
2019-01-15T10:48:42.090Z,23.47
2019-01-15T10:51:14.866Z,22.77
2019-01-15T10:53:48.208Z,20.70
2019-01-15T10:56:20.913Z,18.23
2019-01-15T10:58:53.843Z,25.33
2019-01-15T11:01:26.865Z,19.33
2019-01-15T11:03:59.796Z,17.63
2019-01-15T11:06:33.012Z,17.17
2019-01-15T11:09:07.751Z,19.47
2019-01-15T11:11:40.524Z,18.40
2019-01-15T11:14:13.254Z,14.53
2019-01-15T11:16:46.086Z,15.67
2019-01-15T11:19:18.786Z,13.40
2019-01-15T11:21:51.779Z,17.80
2019-01-15T11:24:24.536Z,17.70
2019-01-15T11:26:57.227Z,17.53
2019-01-15T11:29:32.047Z,16.87
2019-01-15T11:32:04.751Z,11.57
2019-01-15T11:34:39.818Z,16.77
2019-01-15T11:37:12.727Z,12.00
2019-01-15T11:39:45.608Z,12.97
2019-01-15T11:42:18.659Z,14.37
2019-01-15T11:44:51.545Z,14.30
2019-01-15T11:47:24.278Z,19.73
2019-01-15T11:49:57.012Z,14.77
2019-01-15T11:52:29.778Z,14.03
2019-01-15T11:55:02.739Z,17.60
2019-01-15T11:57:35.550Z,11.33
2019-01-15T12:00:15.164Z,10.40
2019-01-15T12:02:47.966Z,14.87
2019-01-15T12:05:22.755Z,11.67
2019-01-15T12:07:55.445Z,10.30
2019-01-15T12:10:28.244Z,11.23
2019-01-15T12:13:20.226Z,10.27
2019-01-15T12:15:53.556Z,10.17
2019-01-15T12:18:26.318Z,11.70
2019-01-15T12:21:01.091Z,11.13
2019-01-15T12:23:35.891Z,12.90
2019-01-15T12:26:08.685Z,12.60
2019-01-15T12:28:42.507Z,12.20
2019-01-15T12:31:15.268Z,12.43
2019-01-15T12:33:49.177Z,13.57
2019-01-15T12:36:22.369Z,14.10
2019-01-15T12:38:56.695Z,12.47
2019-01-15T12:41:29.856Z,12.20
2019-01-15T12:44:03.079Z,10.73
2019-01-15T12:46:35.934Z,11.87
2019-01-15T12:49:11.016Z,9.87
2019-01-15T12:51:44.567Z,7.47
2019-01-15T12:54:18.127Z,10.23
2019-01-15T12:56:50.849Z,16.17
2019-01-15T12:59:23.915Z,10.17
2019-01-15T13:01:56.660Z,11.13
2019-01-15T13:04:29.473Z,12.43
2019-01-15T13:07:03.043Z,10.73
2019-01-15T13:09:35.748Z,9.97
2019-01-15T13:12:08.567Z,14.73
2019-01-15T13:14:41.443Z,8.50
2019-01-15T13:17:15.223Z,12.47
2019-01-15T13:19:47.951Z,19.30
2019-01-15T13:22:20.909Z,9.50
2019-01-15T13:24:53.715Z,12.23
2019-01-15T13:27:26.499Z,15.37
2019-01-15T13:29:59.659Z,11.30
2019-01-15T13:32:33.136Z,13.63
2019-01-15T13:35:05.826Z,12.43
2019-01-15T13:37:38.858Z,15.33
2019-01-15T13:40:11.701Z,11.03
2019-01-15T13:42:44.435Z,13.63
2019-01-15T13:45:17.140Z,11.33
2019-01-15T13:47:49.884Z,10.00
2019-01-15T13:50:22.894Z,15.53
2019-01-15T13:52:55.975Z,11.93
2019-01-15T13:55:29.113Z,8.37
2019-01-15T13:58:01.807Z,11.10
2019-01-15T14:00:34.494Z,8.53
2019-01-15T14:03:07.244Z,8.73
2019-01-15T14:05:40.989Z,9.63
2019-01-15T14:08:14.073Z,13.20
2019-01-15T14:10:46.807Z,8.47
2019-01-15T14:13:19.670Z,9.50
2019-01-15T14:15:53.863Z,11.13
2019-01-15T14:18:27.293Z,10.37
2019-01-15T14:20:59.974Z,11.43
2019-01-15T14:23:33.471Z,14.60
2019-01-15T14:26:06.250Z,9.57
2019-01-15T14:28:38.987Z,10.63
2019-01-15T14:31:13.018Z,11.93
2019-01-15T14:33:46.243Z,13.83
2019-01-15T14:36:20.096Z,11.17
2019-01-15T14:38:53.051Z,15.10
2019-01-15T14:41:25.767Z,9.90
2019-01-15T14:43:58.503Z,10.13
2019-01-15T14:46:31.304Z,9.33
2019-01-15T14:49:04.914Z,12.73
2019-01-15T14:51:38.007Z,11.30
2019-01-15T14:54:11.400Z,13.97
2019-01-15T14:56:44.912Z,11.20
2019-01-15T14:59:18.140Z,12.40
2019-01-15T15:01:51.510Z,11.37
2019-01-15T15:04:24.406Z,11.73
2019-01-15T15:06:57.500Z,10.30
2019-01-15T15:09:31.465Z,7.60
2019-01-15T15:12:04.377Z,12.40
2019-01-15T15:14:37.591Z,9.73
2019-01-15T15:17:10.445Z,11.57
2019-01-15T15:19:43.545Z,16.40
2019-01-15T15:22:16.574Z,13.47
2019-01-15T15:24:49.543Z,13.90
2019-01-15T15:27:22.497Z,10.63
2019-01-15T15:29:55.404Z,12.87
2019-01-15T15:32:28.794Z,14.97
2019-01-15T15:35:01.721Z,10.50
2019-01-15T15:37:34.635Z,10.43
2019-01-15T15:40:07.636Z,16.57
2019-01-15T15:42:40.950Z,13.57
2019-01-15T15:45:14.189Z,11.63
2019-01-15T15:47:47.338Z,11.30
2019-01-15T15:50:20.519Z,7.77
2019-01-15T15:52:53.564Z,9.47
2019-01-15T15:55:26.579Z,9.50
2019-01-15T15:57:59.407Z,11.83
2019-01-15T16:00:32.616Z,11.33
2019-01-15T16:03:05.687Z,13.97
2019-01-15T16:05:38.760Z,8.67
2019-01-15T16:08:13.814Z,8.87
2019-01-15T16:10:46.697Z,14.00
2019-01-15T16:13:19.560Z,9.67
2019-01-15T16:15:52.445Z,13.50
2019-01-15T16:18:25.586Z,10.27
2019-01-15T16:20:58.630Z,16.53
2019-01-15T16:23:31.575Z,12.17
2019-01-15T16:26:04.725Z,11.00
2019-01-15T16:28:37.843Z,11.90
2019-01-15T16:31:10.815Z,9.60
2019-01-15T16:33:43.980Z,7.23
2019-01-15T16:36:16.994Z,12.60
2019-01-15T16:38:49.838Z,12.30
2019-01-15T16:41:22.754Z,13.67
2019-01-15T16:43:55.602Z,11.57
2019-01-15T16:46:28.709Z,10.03
2019-01-15T16:49:01.959Z,17.73
2019-01-15T16:51:35.172Z,13.60
2019-01-15T16:54:08.188Z,12.57
2019-01-15T16:56:41.189Z,11.43
2019-01-15T16:59:14.051Z,12.83
2019-01-15T17:01:47.128Z,10.87
2019-01-15T17:04:20.087Z,10.20
2019-01-15T17:06:53.128Z,13.70
2019-01-15T17:09:26.187Z,12.50
2019-01-15T17:11:59.231Z,10.23
2019-01-15T17:14:32.191Z,7.53
2019-01-15T17:17:05.458Z,8.23
2019-01-15T17:19:38.321Z,12.10
2019-01-15T17:22:11.290Z,10.00
2019-01-15T17:24:44.197Z,8.70
2019-01-15T17:27:17.253Z,10.07
2019-01-15T17:29:50.355Z,7.13
2019-01-15T17:32:23.492Z,6.63
2019-01-15T17:34:56.337Z,10.00
2019-01-15T17:37:29.528Z,7.50
2019-01-15T17:40:02.761Z,7.80
2019-01-15T17:42:35.685Z,9.87
2019-01-15T17:45:08.682Z,6.60
2019-01-15T17:47:41.693Z,8.47
2019-01-15T17:50:14.613Z,8.87
2019-01-15T17:52:47.447Z,5.50
2019-01-15T17:55:20.760Z,8.83
2019-01-15T17:57:53.729Z,7.83
2019-01-15T18:00:26.662Z,8.83
2019-01-15T18:02:59.751Z,10.17
2019-01-15T18:05:32.689Z,8.27
2019-01-15T18:08:05.601Z,11.07
2019-01-15T18:10:38.650Z,8.33
2019-01-15T18:13:11.606Z,10.40
2019-01-15T18:15:44.653Z,9.63
2019-01-15T18:18:18.524Z,10.20
2019-01-15T18:20:51.227Z,9.03
2019-01-15T18:23:24.152Z,10.03
2019-01-15T18:25:57.106Z,13.57
2019-01-15T18:28:30.049Z,9.80
2019-01-15T18:31:02.983Z,12.43
2019-01-15T18:33:37.267Z,18.33
2019-01-15T18:36:10.853Z,10.77
2019-01-15T18:38:45.458Z,17.33
2019-01-15T18:41:18.940Z,14.13
2019-01-15T18:43:52.355Z,14.23
2019-01-15T18:46:25.639Z,17.63
2019-01-15T18:48:58.726Z,12.23
2019-01-15T18:51:31.708Z,16.40
2019-01-15T18:54:04.725Z,14.37
2019-01-15T18:56:37.535Z,16.27
2019-01-15T18:59:10.487Z,17.37
2019-01-15T19:01:43.319Z,14.43
2019-01-15T19:04:16.908Z,8.80
2019-01-15T19:06:49.944Z,11.13
2019-01-15T19:09:22.962Z,14.37
2019-01-15T19:11:55.920Z,11.33
2019-01-15T19:14:29.152Z,10.33
2019-01-15T19:17:03.485Z,11.67
2019-01-15T19:19:37.128Z,10.17
2019-01-15T19:22:10.259Z,10.77
2019-01-15T19:24:43.408Z,10.53
2019-01-15T19:27:16.470Z,12.63
2019-01-15T19:29:49.310Z,8.83
2019-01-15T19:32:22.239Z,8.30
2019-01-15T19:34:55.223Z,9.53
2019-01-15T19:37:28.185Z,11.93
2019-01-15T19:40:01.587Z,10.90
2019-01-15T19:42:35.005Z,12.00
2019-01-15T19:45:07.943Z,11.73
2019-01-15T19:47:41.834Z,11.80
2019-01-15T19:50:14.838Z,9.70
2019-01-15T19:52:50.720Z,10.40
2019-01-15T19:55:23.616Z,13.87
2019-01-15T19:57:56.795Z,10.03
2019-01-15T20:00:29.902Z,10.80
2019-01-15T20:03:03.064Z,9.40
2019-01-15T20:05:35.895Z,10.47
2019-01-15T20:08:08.618Z,10.70
2019-01-15T20:10:41.439Z,8.97
2019-01-15T20:13:14.784Z,10.10
2019-01-15T20:15:47.539Z,10.03
2019-01-15T20:18:20.505Z,12.27
2019-01-15T20:20:53.920Z,12.47
2019-01-15T20:23:26.640Z,10.17
2019-01-15T20:25:59.565Z,9.60
2019-01-15T20:28:32.588Z,10.90
2019-01-15T20:31:05.635Z,10.70
2019-01-15T20:33:38.630Z,13.97
2019-01-15T20:36:11.655Z,11.00
2019-01-15T20:38:44.672Z,10.40
2019-01-15T20:41:17.718Z,13.07
2019-01-15T20:43:50.785Z,12.87
2019-01-15T20:46:24.141Z,12.77
2019-01-15T20:48:57.899Z,12.80
2019-01-15T20:51:31.059Z,12.63
2019-01-15T20:54:04.138Z,10.27
2019-01-15T20:56:39.029Z,10.03
2019-01-15T20:59:21.534Z,10.17
2019-01-15T21:01:54.238Z,12.27
2019-01-15T21:04:27.223Z,9.93
2019-01-15T21:06:59.976Z,12.00
2019-01-15T21:09:32.642Z,10.77
2019-01-15T21:12:05.342Z,9.80
2019-01-15T21:14:38.042Z,10.37
2019-01-15T21:17:10.779Z,10.03
2019-01-15T21:19:43.507Z,10.37
2019-01-15T21:22:16.194Z,12.57
2019-01-15T21:24:48.899Z,9.43
2019-01-15T21:27:21.620Z,9.47
2019-01-15T21:29:54.387Z,8.97
2019-01-15T21:32:27.516Z,12.20
2019-01-15T21:35:00.740Z,9.30
2019-01-15T21:37:33.568Z,11.47
2019-01-15T21:40:06.272Z,10.77
2019-01-15T21:42:38.991Z,10.37
2019-01-15T21:45:11.724Z,10.30
